sensor_id;sensor_type;location;lat;lon;timestamp;pressure;altitude;pressure_sealevel;temperature;humidity
71573;BME280;59408;51.032;9.410;2023-07-08T00:00:09;99258.16;;;15.97;66.37
71573;BME280;59408;51.032;9.410;2023-07-08T00:02:36;99258.34;;;15.85;65.40
71573;BME280;59408;51.032;9.410;2023-07-08T00:05:04;99258.59;;;15.76;67.25
71573;BME280;59408;51.032;9.410;2023-07-08T00:07:30;99255.69;;;15.66;67.31
71573;BME280;59408;51.032;9.410;2023-07-08T00:09:57;99253.94;;;15.58;67.37
71573;BME280;59408;51.032;9.410;2023-07-08T00:12:25;99255.78;;;15.50;68.21
71573;BME280;59408;51.032;9.410;2023-07-08T00:14:51;99253.25;;;15.41;68.63
71573;BME280;59408;51.032;9.410;2023-07-08T00:17:18;99248.38;;;15.31;68.77
71573;BME280;59408;51.032;9.410;2023-07-08T00:19:45;99248.59;;;15.23;69.32
71573;BME280;59408;51.032;9.410;2023-07-08T00:22:12;99252.47;;;15.18;70.60
71573;BME280;59408;51.032;9.410;2023-07-08T00:24:39;99244.09;;;15.11;70.69
71573;BME280;59408;51.032;9.410;2023-07-08T00:27:09;99246.31;;;15.05;70.70
71573;BME280;59408;51.032;9.410;2023-07-08T00:29:37;99242.72;;;15.01;71.42
71573;BME280;59408;51.032;9.410;2023-07-08T00:32:09;99239.41;;;14.92;73.11
71573;BME280;59408;51.032;9.410;2023-07-08T00:34:36;99240.84;;;14.86;72.02
71573;BME280;59408;51.032;9.410;2023-07-08T00:37:03;99237.16;;;14.79;72.51
71573;BME280;59408;51.032;9.410;2023-07-08T00:39:29;99244.81;;;14.69;73.09
71573;BME280;59408;51.032;9.410;2023-07-08T00:41:57;99246.91;;;14.57;74.27
71573;BME280;59408;51.032;9.410;2023-07-08T00:44:24;99246.56;;;14.43;75.46
71573;BME280;59408;51.032;9.410;2023-07-08T00:46:57;99247.13;;;14.32;76.05
71573;BME280;59408;51.032;9.410;2023-07-08T00:49:37;99249.38;;;14.27;75.41
71573;BME280;59408;51.032;9.410;2023-07-08T00:52:20;99248.41;;;14.19;76.99
71573;BME280;59408;51.032;9.410;2023-07-08T00:54:49;99243.19;;;14.14;77.85
71573;BME280;59408;51.032;9.410;2023-07-08T00:57:16;99250.56;;;14.10;77.00
71573;BME280;59408;51.032;9.410;2023-07-08T00:59:46;99257.19;;;14.09;76.13
71573;BME280;59408;51.032;9.410;2023-07-08T01:02:17;99251.63;;;14.06;77.00
71573;BME280;59408;51.032;9.410;2023-07-08T01:04:50;99260.94;;;14.01;77.35
71573;BME280;59408;51.032;9.410;2023-07-08T01:07:19;99248.63;;;13.95;78.00
71573;BME280;59408;51.032;9.410;2023-07-08T01:09:47;99251.66;;;13.90;78.75
71573;BME280;59408;51.032;9.410;2023-07-08T01:12:18;99246.06;;;13.86;77.55
71573;BME280;59408;51.032;9.410;2023-07-08T01:14:47;99240.13;;;13.84;77.21
71573;BME280;59408;51.032;9.410;2023-07-08T01:17:16;99240.56;;;13.86;77.60
71573;BME280;59408;51.032;9.410;2023-07-08T01:19:43;99238.56;;;13.83;76.87
71573;BME280;59408;51.032;9.410;2023-07-08T01:22:12;99233.78;;;13.80;77.88
71573;BME280;59408;51.032;9.410;2023-07-08T01:24:40;99232.03;;;13.72;79.29
71573;BME280;59408;51.032;9.410;2023-07-08T01:27:11;99230.34;;;13.68;79.93
71573;BME280;59408;51.032;9.410;2023-07-08T01:29:38;99227.06;;;13.62;80.64
71573;BME280;59408;51.032;9.410;2023-07-08T01:32:05;99231.25;;;13.56;80.59
71573;BME280;59408;51.032;9.410;2023-07-08T01:34:33;99229.53;;;13.51;81.23
71573;BME280;59408;51.032;9.410;2023-07-08T01:37:01;99231.03;;;13.49;81.21
71573;BME280;59408;51.032;9.410;2023-07-08T01:39:31;99238.38;;;13.45;82.28
71573;BME280;59408;51.032;9.410;2023-07-08T01:41:59;99229.28;;;13.41;81.73
71573;BME280;59408;51.032;9.410;2023-07-08T01:44:28;99229.88;;;13.34;83.54
71573;BME280;59408;51.032;9.410;2023-07-08T01:46:56;99227.41;;;13.29;82.89
71573;BME280;59408;51.032;9.410;2023-07-08T01:49:24;99227.28;;;13.26;83.29
71573;BME280;59408;51.032;9.410;2023-07-08T01:51:51;99226.31;;;13.18;84.66
71573;BME280;59408;51.032;9.410;2023-07-08T01:54:18;99222.66;;;13.14;84.41
71573;BME280;59408;51.032;9.410;2023-07-08T01:56:46;99231.22;;;13.12;85.00
71573;BME280;59408;51.032;9.410;2023-07-08T01:59:12;99220.19;;;13.09;85.63
71573;BME280;59408;51.032;9.410;2023-07-08T02:01:39;99218.50;;;13.04;84.65
71573;BME280;59408;51.032;9.410;2023-07-08T02:04:06;99221.97;;;13.01;85.72
71573;BME280;59408;51.032;9.410;2023-07-08T02:06:32;99223.34;;;12.95;86.22
71573;BME280;59408;51.032;9.410;2023-07-08T02:08:59;99232.63;;;12.91;87.67
71573;BME280;59408;51.032;9.410;2023-07-08T02:11:26;99223.50;;;12.86;87.52
71573;BME280;59408;51.032;9.410;2023-07-08T02:13:53;99222.16;;;12.80;86.42
71573;BME280;59408;51.032;9.410;2023-07-08T02:16:20;99216.13;;;12.75;86.67
71573;BME280;59408;51.032;9.410;2023-07-08T02:18:47;99219.47;;;12.68;89.25
71573;BME280;59408;51.032;9.410;2023-07-08T02:21:13;99215.06;;;12.64;88.71
71573;BME280;59408;51.032;9.410;2023-07-08T02:23:40;99211.41;;;12.60;88.60
71573;BME280;59408;51.032;9.410;2023-07-08T02:26:06;99213.50;;;12.51;89.22
71573;BME280;59408;51.032;9.410;2023-07-08T02:28:33;99214.53;;;12.46;89.75
71573;BME280;59408;51.032;9.410;2023-07-08T02:31:03;99214.44;;;12.42;88.59
71573;BME280;59408;51.032;9.410;2023-07-08T02:33:29;99219.09;;;12.42;90.09
71573;BME280;59408;51.032;9.410;2023-07-08T02:35:56;99217.84;;;12.39;89.48
71573;BME280;59408;51.032;9.410;2023-07-08T02:38:23;99218.22;;;12.38;89.95
71573;BME280;59408;51.032;9.410;2023-07-08T02:40:49;99206.03;;;12.35;90.54
71573;BME280;59408;51.032;9.410;2023-07-08T02:43:16;99213.44;;;12.35;90.23
71573;BME280;59408;51.032;9.410;2023-07-08T02:45:42;99209.22;;;12.37;90.08
71573;BME280;59408;51.032;9.410;2023-07-08T02:48:10;99206.81;;;12.36;90.49
71573;BME280;59408;51.032;9.410;2023-07-08T02:50:37;99209.91;;;12.34;89.99
71573;BME280;59408;51.032;9.410;2023-07-08T02:53:03;99218.78;;;12.31;90.74
71573;BME280;59408;51.032;9.410;2023-07-08T02:55:30;99222.22;;;12.28;90.24
71573;BME280;59408;51.032;9.410;2023-07-08T02:57:57;99226.09;;;12.27;90.12
71573;BME280;59408;51.032;9.410;2023-07-08T03:00:23;99209.91;;;12.22;89.16
71573;BME280;59408;51.032;9.410;2023-07-08T03:02:50;99222.44;;;12.23;89.69
71573;BME280;59408;51.032;9.410;2023-07-08T03:05:18;99220.84;;;12.22;89.23
71573;BME280;59408;51.032;9.410;2023-07-08T03:07:45;99222.38;;;12.20;87.57
71573;BME280;59408;51.032;9.410;2023-07-08T03:10:12;99217.22;;;12.18;88.38
71573;BME280;59408;51.032;9.410;2023-07-08T03:12:38;99218.03;;;12.19;90.49
71573;BME280;59408;51.032;9.410;2023-07-08T03:15:06;99218.72;;;12.16;88.26
71573;BME280;59408;51.032;9.410;2023-07-08T03:17:33;99212.78;;;12.14;88.46
71573;BME280;59408;51.032;9.410;2023-07-08T03:19:59;99215.50;;;12.14;89.08
71573;BME280;59408;51.032;9.410;2023-07-08T03:22:27;99214.38;;;12.15;90.71
71573;BME280;59408;51.032;9.410;2023-07-08T03:24:54;99214.22;;;12.11;90.62
71573;BME280;59408;51.032;9.410;2023-07-08T03:27:20;99221.28;;;12.12;90.27
71573;BME280;59408;51.032;9.410;2023-07-08T03:29:47;99220.88;;;12.10;89.42
71573;BME280;59408;51.032;9.410;2023-07-08T03:32:13;99225.97;;;12.11;89.67
71573;BME280;59408;51.032;9.410;2023-07-08T03:34:40;99220.50;;;12.11;89.09
71573;BME280;59408;51.032;9.410;2023-07-08T03:37:08;99228.34;;;12.13;88.64
71573;BME280;59408;51.032;9.410;2023-07-08T03:39:37;99230.00;;;12.14;88.64
71573;BME280;59408;51.032;9.410;2023-07-08T03:42:04;99240.13;;;12.14;88.74
71573;BME280;59408;51.032;9.410;2023-07-08T03:44:31;99239.91;;;12.19;89.20
71573;BME280;59408;51.032;9.410;2023-07-08T03:46:57;99236.03;;;12.20;88.80
71573;BME280;59408;51.032;9.410;2023-07-08T03:49:24;99236.03;;;12.20;88.87
71573;BME280;59408;51.032;9.410;2023-07-08T03:51:52;99238.78;;;12.20;89.25
71573;BME280;59408;51.032;9.410;2023-07-08T03:54:22;99246.59;;;12.21;89.95
71573;BME280;59408;51.032;9.410;2023-07-08T03:56:51;99249.47;;;12.25;89.89
71573;BME280;59408;51.032;9.410;2023-07-08T03:59:18;99238.97;;;12.27;89.46
71573;BME280;59408;51.032;9.410;2023-07-08T04:01:45;99251.59;;;12.31;88.36
71573;BME280;59408;51.032;9.410;2023-07-08T04:04:13;99242.72;;;12.34;87.83
71573;BME280;59408;51.032;9.410;2023-07-08T04:06:39;99246.34;;;12.38;87.88
71573;BME280;59408;51.032;9.410;2023-07-08T04:09:06;99241.44;;;12.44;88.33
71573;BME280;59408;51.032;9.410;2023-07-08T04:11:33;99242.78;;;12.50;89.83
71573;BME280;59408;51.032;9.410;2023-07-08T04:14:01;99252.00;;;12.58;89.17
71573;BME280;59408;51.032;9.410;2023-07-08T04:16:31;99252.22;;;12.65;88.40
71573;BME280;59408;51.032;9.410;2023-07-08T04:18:58;99259.50;;;12.73;88.85
71573;BME280;59408;51.032;9.410;2023-07-08T04:21:25;99256.94;;;12.80;87.91
71573;BME280;59408;51.032;9.410;2023-07-08T04:23:51;99265.13;;;12.92;88.01
71573;BME280;59408;51.032;9.410;2023-07-08T04:26:18;99262.66;;;13.03;87.95
71573;BME280;59408;51.032;9.410;2023-07-08T04:28:45;99259.75;;;13.11;88.13
71573;BME280;59408;51.032;9.410;2023-07-08T04:31:13;99265.19;;;13.23;86.76
71573;BME280;59408;51.032;9.410;2023-07-08T04:33:40;99261.84;;;13.30;85.34
71573;BME280;59408;51.032;9.410;2023-07-08T04:36:11;99267.53;;;13.37;86.54
71573;BME280;59408;51.032;9.410;2023-07-08T04:38:38;99264.78;;;13.37;86.43
71573;BME280;59408;51.032;9.410;2023-07-08T04:41:05;99263.75;;;13.42;85.95
71573;BME280;59408;51.032;9.410;2023-07-08T04:43:31;99260.84;;;13.50;86.49
71573;BME280;59408;51.032;9.410;2023-07-08T04:45:58;99261.22;;;13.65;86.60
71573;BME280;59408;51.032;9.410;2023-07-08T04:48:27;99275.09;;;13.72;85.96
71573;BME280;59408;51.032;9.410;2023-07-08T04:50:53;99268.00;;;13.71;84.94
71573;BME280;59408;51.032;9.410;2023-07-08T04:53:20;99266.25;;;13.78;87.31
71573;BME280;59408;51.032;9.410;2023-07-08T04:55:49;99260.22;;;13.88;87.26
71573;BME280;59408;51.032;9.410;2023-07-08T04:58:16;99259.44;;;13.88;87.49
71573;BME280;59408;51.032;9.410;2023-07-08T05:00:43;99260.38;;;13.95;87.12
71573;BME280;59408;51.032;9.410;2023-07-08T05:03:10;99258.53;;;14.00;87.16
71573;BME280;59408;51.032;9.410;2023-07-08T05:05:38;99259.34;;;14.00;85.30
71573;BME280;59408;51.032;9.410;2023-07-08T05:08:05;99261.72;;;14.02;87.44
71573;BME280;59408;51.032;9.410;2023-07-08T05:10:32;99265.69;;;14.04;87.59
71573;BME280;59408;51.032;9.410;2023-07-08T05:12:59;99266.94;;;14.07;86.69
71573;BME280;59408;51.032;9.410;2023-07-08T05:15:26;99261.16;;;14.12;84.74
71573;BME280;59408;51.032;9.410;2023-07-08T05:17:53;99258.59;;;14.19;86.57
71573;BME280;59408;51.032;9.410;2023-07-08T05:20:19;99258.31;;;14.24;86.33
71573;BME280;59408;51.032;9.410;2023-07-08T05:22:47;99267.69;;;14.23;85.45
71573;BME280;59408;51.032;9.410;2023-07-08T05:25:14;99266.63;;;14.27;84.77
71573;BME280;59408;51.032;9.410;2023-07-08T05:27:41;99269.16;;;14.36;83.65
71573;BME280;59408;51.032;9.410;2023-07-08T05:30:11;99261.59;;;14.49;83.33
71573;BME280;59408;51.032;9.410;2023-07-08T05:32:39;99267.00;;;14.61;82.88
71573;BME280;59408;51.032;9.410;2023-07-08T05:35:07;99257.88;;;14.76;82.54
71573;BME280;59408;51.032;9.410;2023-07-08T05:37:36;99255.50;;;14.94;81.81
71573;BME280;59408;51.032;9.410;2023-07-08T05:40:05;99262.94;;;15.13;80.93
71573;BME280;59408;51.032;9.410;2023-07-08T05:42:32;99254.66;;;15.32;79.06
71573;BME280;59408;51.032;9.410;2023-07-08T05:44:59;99258.97;;;15.52;78.28
71573;BME280;59408;51.032;9.410;2023-07-08T05:47:25;99258.25;;;15.78;78.86
71573;BME280;59408;51.032;9.410;2023-07-08T05:49:52;99263.38;;;16.02;78.06
71573;BME280;59408;51.032;9.410;2023-07-08T05:52:19;99260.13;;;16.23;74.23
71573;BME280;59408;51.032;9.410;2023-07-08T05:54:45;99256.63;;;16.52;74.11
71573;BME280;59408;51.032;9.410;2023-07-08T05:57:13;99263.31;;;16.81;75.08
71573;BME280;59408;51.032;9.410;2023-07-08T05:59:40;99255.75;;;17.08;74.65
71573;BME280;59408;51.032;9.410;2023-07-08T06:02:10;99256.03;;;17.33;73.45
71573;BME280;59408;51.032;9.410;2023-07-08T06:04:37;99258.28;;;17.61;72.97
71573;BME280;59408;51.032;9.410;2023-07-08T06:07:04;99264.00;;;17.82;71.69
71573;BME280;59408;51.032;9.410;2023-07-08T06:09:30;99276.41;;;18.02;70.54
71573;BME280;59408;51.032;9.410;2023-07-08T06:11:57;99265.88;;;18.22;70.58
71573;BME280;59408;51.032;9.410;2023-07-08T06:14:26;99270.34;;;18.37;70.85
71573;BME280;59408;51.032;9.410;2023-07-08T06:16:53;99269.88;;;18.32;69.87
71573;BME280;59408;51.032;9.410;2023-07-08T06:19:19;99263.59;;;18.35;70.94
71573;BME280;59408;51.032;9.410;2023-07-08T06:21:46;99265.19;;;18.36;70.59
71573;BME280;59408;51.032;9.410;2023-07-08T06:24:13;99264.50;;;18.50;69.35
71573;BME280;59408;51.032;9.410;2023-07-08T06:26:39;99262.97;;;18.56;70.87
71573;BME280;59408;51.032;9.410;2023-07-08T06:29:06;99263.75;;;18.56;70.49
71573;BME280;59408;51.032;9.410;2023-07-08T06:31:34;99253.16;;;18.69;70.13
71573;BME280;59408;51.032;9.410;2023-07-08T06:34:01;99261.47;;;18.76;71.30
71573;BME280;59408;51.032;9.410;2023-07-08T06:36:28;99261.53;;;18.87;69.67
71573;BME280;59408;51.032;9.410;2023-07-08T06:38:54;99254.88;;;19.05;69.65
71573;BME280;59408;51.032;9.410;2023-07-08T06:41:21;99264.03;;;19.27;69.65
71573;BME280;59408;51.032;9.410;2023-07-08T06:43:47;99254.22;;;19.44;69.22
71573;BME280;59408;51.032;9.410;2023-07-08T06:46:14;99260.19;;;19.64;67.04
71573;BME280;59408;51.032;9.410;2023-07-08T06:48:42;99261.78;;;19.82;65.06
71573;BME280;59408;51.032;9.410;2023-07-08T06:51:09;99259.41;;;19.88;65.00
71573;BME280;59408;51.032;9.410;2023-07-08T06:53:35;99266.50;;;19.78;64.05
71573;BME280;59408;51.032;9.410;2023-07-08T06:56:02;99266.13;;;19.73;64.10
71573;BME280;59408;51.032;9.410;2023-07-08T06:58:29;99268.09;;;19.65;64.77
71573;BME280;59408;51.032;9.410;2023-07-08T07:00:56;99264.16;;;19.66;65.21
71573;BME280;59408;51.032;9.410;2023-07-08T07:03:23;99270.03;;;19.47;65.34
71573;BME280;59408;51.032;9.410;2023-07-08T07:05:51;99267.63;;;19.35;66.50
71573;BME280;59408;51.032;9.410;2023-07-08T07:08:18;99269.53;;;19.16;66.56
71573;BME280;59408;51.032;9.410;2023-07-08T07:10:44;99265.16;;;19.05;66.06
71573;BME280;59408;51.032;9.410;2023-07-08T07:13:11;99269.88;;;18.94;67.53
71573;BME280;59408;51.032;9.410;2023-07-08T07:15:38;99275.78;;;18.96;67.54
71573;BME280;59408;51.032;9.410;2023-07-08T07:18:05;99281.66;;;18.84;66.72
71573;BME280;59408;51.032;9.410;2023-07-08T07:20:33;99273.72;;;18.78;67.63
71573;BME280;59408;51.032;9.410;2023-07-08T07:23:01;99277.00;;;19.02;67.23
71573;BME280;59408;51.032;9.410;2023-07-08T07:25:28;99272.00;;;19.39;66.08
71573;BME280;59408;51.032;9.410;2023-07-08T07:27:54;99277.97;;;19.87;66.41
71573;BME280;59408;51.032;9.410;2023-07-08T07:30:21;99271.69;;;20.19;65.48
71573;BME280;59408;51.032;9.410;2023-07-08T07:32:47;99272.41;;;20.55;64.21
71573;BME280;59408;51.032;9.410;2023-07-08T07:35:14;99272.28;;;20.94;62.32
71573;BME280;59408;51.032;9.410;2023-07-08T07:37:42;99275.75;;;21.19;62.08
71573;BME280;59408;51.032;9.410;2023-07-08T07:40:12;99265.63;;;21.57;61.09
71573;BME280;59408;51.032;9.410;2023-07-08T07:42:39;99261.81;;;21.92;60.47
71573;BME280;59408;51.032;9.410;2023-07-08T07:45:07;99268.38;;;22.12;58.33
71573;BME280;59408;51.032;9.410;2023-07-08T07:47:35;99268.09;;;22.41;59.20
71573;BME280;59408;51.032;9.410;2023-07-08T07:50:02;99272.34;;;22.56;57.90
71573;BME280;59408;51.032;9.410;2023-07-08T07:52:29;99268.81;;;22.86;57.12
71573;BME280;59408;51.032;9.410;2023-07-08T07:54:55;99267.56;;;23.24;56.83
71573;BME280;59408;51.032;9.410;2023-07-08T07:57:24;99268.50;;;23.41;55.13
71573;BME280;59408;51.032;9.410;2023-07-08T07:59:51;99259.03;;;23.89;56.05
71573;BME280;59408;51.032;9.410;2023-07-08T08:02:18;99262.00;;;24.25;52.99
71573;BME280;59408;51.032;9.410;2023-07-08T08:04:45;99271.34;;;24.38;54.33
71573;BME280;59408;51.032;9.410;2023-07-08T08:07:11;99281.88;;;24.74;51.36
71573;BME280;59408;51.032;9.410;2023-07-08T08:09:38;99276.50;;;25.02;51.72
71573;BME280;59408;51.032;9.410;2023-07-08T08:12:07;99279.25;;;25.22;54.94
71573;BME280;59408;51.032;9.410;2023-07-08T08:14:35;99273.41;;;25.53;52.34
71573;BME280;59408;51.032;9.410;2023-07-08T08:17:02;99280.00;;;25.78;50.12
71573;BME280;59408;51.032;9.410;2023-07-08T08:19:29;99280.66;;;26.02;47.50
71573;BME280;59408;51.032;9.410;2023-07-08T08:21:55;99281.78;;;26.21;50.84
71573;BME280;59408;51.032;9.410;2023-07-08T08:24:22;99285.25;;;26.25;47.73
71573;BME280;59408;51.032;9.410;2023-07-08T08:26:52;99286.97;;;26.68;50.24
71573;BME280;59408;51.032;9.410;2023-07-08T08:29:18;99289.34;;;26.82;46.27
71573;BME280;59408;51.032;9.410;2023-07-08T08:31:46;99295.78;;;26.95;45.18
71573;BME280;59408;51.032;9.410;2023-07-08T08:34:13;99301.41;;;27.37;42.48
71573;BME280;59408;51.032;9.410;2023-07-08T08:36:39;99296.03;;;28.06;42.87
71573;BME280;59408;51.032;9.410;2023-07-08T08:39:06;99296.75;;;28.44;41.40
71573;BME280;59408;51.032;9.410;2023-07-08T08:41:34;99296.78;;;28.88;40.96
71573;BME280;59408;51.032;9.410;2023-07-08T08:44:02;99297.84;;;29.25;39.75
71573;BME280;59408;51.032;9.410;2023-07-08T08:46:34;99297.75;;;29.06;38.63
71573;BME280;59408;51.032;9.410;2023-07-08T08:49:17;99296.41;;;28.42;44.34
71573;BME280;59408;51.032;9.410;2023-07-08T08:51:49;99298.47;;;28.98;43.44
71573;BME280;59408;51.032;9.410;2023-07-08T08:54:16;99286.78;;;28.99;38.11
71573;BME280;59408;51.032;9.410;2023-07-08T08:56:50;99284.41;;;29.20;37.14
71573;BME280;59408;51.032;9.410;2023-07-08T08:59:24;99288.63;;;29.24;40.49
71573;BME280;59408;51.032;9.410;2023-07-08T09:01:54;99284.78;;;29.31;39.49
71573;BME280;59408;51.032;9.410;2023-07-08T09:04:27;99286.25;;;29.66;40.04
71573;BME280;59408;51.032;9.410;2023-07-08T09:07:04;99294.31;;;29.95;40.61
71573;BME280;59408;51.032;9.410;2023-07-08T09:09:37;99293.97;;;29.84;37.91
71573;BME280;59408;51.032;9.410;2023-07-08T09:12:08;99297.50;;;30.15;38.46
71573;BME280;59408;51.032;9.410;2023-07-08T09:14:36;99301.66;;;29.62;39.44
71573;BME280;59408;51.032;9.410;2023-07-08T09:17:14;99295.84;;;29.96;39.18
71573;BME280;59408;51.032;9.410;2023-07-08T09:19:47;99299.25;;;30.22;38.28
71573;BME280;59408;51.032;9.410;2023-07-08T09:22:18;99292.72;;;30.61;33.30
71573;BME280;59408;51.032;9.410;2023-07-08T09:24:50;99289.09;;;31.25;32.03
71573;BME280;59408;51.032;9.410;2023-07-08T09:27:18;99284.53;;;31.37;31.46
71573;BME280;59408;51.032;9.410;2023-07-08T09:29:45;99294.50;;;31.47;32.75
71573;BME280;59408;51.032;9.410;2023-07-08T09:32:16;99285.31;;;31.79;31.81
71573;BME280;59408;51.032;9.410;2023-07-08T09:34:46;99292.44;;;31.98;30.56
71573;BME280;59408;51.032;9.410;2023-07-08T09:37:21;99284.03;;;32.22;29.43
71573;BME280;59408;51.032;9.410;2023-07-08T09:39:49;99298.53;;;32.54;29.29
71573;BME280;59408;51.032;9.410;2023-07-08T09:42:15;99291.53;;;32.64;29.94
71573;BME280;59408;51.032;9.410;2023-07-08T09:44:44;99286.53;;;32.83;30.12
71573;BME280;59408;51.032;9.410;2023-07-08T09:47:20;99292.50;;;32.61;28.64
71573;BME280;59408;51.032;9.410;2023-07-08T09:49:49;99295.03;;;32.59;28.71
71573;BME280;59408;51.032;9.410;2023-07-08T09:52:18;99293.47;;;32.58;29.25
71573;BME280;59408;51.032;9.410;2023-07-08T09:54:45;99297.25;;;32.78;28.78
71573;BME280;59408;51.032;9.410;2023-07-08T09:57:24;99302.81;;;32.49;27.73
71573;BME280;59408;51.032;9.410;2023-07-08T09:59:55;99295.44;;;32.19;26.14
71573;BME280;59408;51.032;9.410;2023-07-08T10:02:29;99293.00;;;32.35;29.03
71573;BME280;59408;51.032;9.410;2023-07-08T10:05:00;99293.84;;;32.74;28.01
71573;BME280;59408;51.032;9.410;2023-07-08T10:07:29;99291.25;;;33.15;27.61
71573;BME280;59408;51.032;9.410;2023-07-08T10:09:59;99291.66;;;33.23;27.76
71573;BME280;59408;51.032;9.410;2023-07-08T10:12:26;99288.03;;;33.51;27.13
71573;BME280;59408;51.032;9.410;2023-07-08T10:14:58;99282.59;;;33.98;28.05
71573;BME280;59408;51.032;9.410;2023-07-08T10:17:26;99284.91;;;33.20;24.47
71573;BME280;59408;51.032;9.410;2023-07-08T10:19:52;99279.66;;;33.42;25.90
71573;BME280;59408;51.032;9.410;2023-07-08T10:22:29;99281.41;;;33.54;24.87
71573;BME280;59408;51.032;9.410;2023-07-08T10:25:06;99277.72;;;33.34;25.25
71573;BME280;59408;51.032;9.410;2023-07-08T10:27:40;99273.97;;;33.86;26.82
71573;BME280;59408;51.032;9.410;2023-07-08T10:30:22;99274.69;;;34.22;24.71
71573;BME280;59408;51.032;9.410;2023-07-08T10:32:59;99272.97;;;34.71;26.40
71573;BME280;59408;51.032;9.410;2023-07-08T10:35:33;99269.34;;;34.90;25.16
71573;BME280;59408;51.032;9.410;2023-07-08T10:38:30;99279.53;;;34.77;25.71
71573;BME280;59408;51.032;9.410;2023-07-08T10:41:10;99278.06;;;34.06;26.09
71573;BME280;59408;51.032;9.410;2023-07-08T10:43:49;99270.75;;;34.14;26.57
71573;BME280;59408;51.032;9.410;2023-07-08T10:46:26;99257.94;;;34.59;24.82
71573;BME280;59408;51.032;9.410;2023-07-08T10:49:08;99263.69;;;34.90;24.45
71573;BME280;59408;51.032;9.410;2023-07-08T10:51:47;99263.03;;;33.79;25.95
71573;BME280;59408;51.032;9.410;2023-07-08T10:54:31;99265.56;;;34.73;26.93
71573;BME280;59408;51.032;9.410;2023-07-08T10:57:10;99265.69;;;35.10;26.09
71573;BME280;59408;51.032;9.410;2023-07-08T10:59:48;99249.78;;;35.81;25.56
71573;BME280;59408;51.032;9.410;2023-07-08T11:02:27;99248.16;;;36.12;23.11
71573;BME280;59408;51.032;9.410;2023-07-08T11:05:11;99251.97;;;36.03;21.73
71573;BME280;59408;51.032;9.410;2023-07-08T11:07:46;99252.88;;;35.46;23.56
71573;BME280;59408;51.032;9.410;2023-07-08T11:10:21;99249.34;;;34.33;24.72
71573;BME280;59408;51.032;9.410;2023-07-08T11:12:54;99250.41;;;34.15;24.37
71573;BME280;59408;51.032;9.410;2023-07-08T11:15:26;99249.28;;;34.48;25.02
71573;BME280;59408;51.032;9.410;2023-07-08T11:17:59;99254.47;;;35.21;25.14
71573;BME280;59408;51.032;9.410;2023-07-08T11:20:34;99251.69;;;34.75;23.41
71573;BME280;59408;51.032;9.410;2023-07-08T11:23:10;99250.03;;;35.46;25.35
71573;BME280;59408;51.032;9.410;2023-07-08T11:25:44;99246.81;;;35.64;24.10
71573;BME280;59408;51.032;9.410;2023-07-08T11:28:15;99245.63;;;35.45;26.47
71573;BME280;59408;51.032;9.410;2023-07-08T11:30:46;99244.88;;;35.82;25.40
71573;BME280;59408;51.032;9.410;2023-07-08T11:33:14;99236.22;;;36.02;24.80
71573;BME280;59408;51.032;9.410;2023-07-08T11:35:46;99232.97;;;36.15;24.28
71573;BME280;59408;51.032;9.410;2023-07-08T11:38:15;99229.22;;;35.97;23.58
71573;BME280;59408;51.032;9.410;2023-07-08T11:40:52;99231.78;;;36.49;25.63
71573;BME280;59408;51.032;9.410;2023-07-08T11:43:21;99220.59;;;35.44;22.47
71573;BME280;59408;51.032;9.410;2023-07-08T11:45:50;99222.75;;;35.54;23.20
71573;BME280;59408;51.032;9.410;2023-07-08T11:48:21;99216.75;;;36.43;23.25
71573;BME280;59408;51.032;9.410;2023-07-08T11:50:50;99209.31;;;35.97;22.70
71573;BME280;59408;51.032;9.410;2023-07-08T11:53:33;99211.38;;;36.56;24.40
71573;BME280;59408;51.032;9.410;2023-07-08T11:56:03;99212.00;;;37.44;24.23
71573;BME280;59408;51.032;9.410;2023-07-08T11:58:32;99206.75;;;37.98;22.29
71573;BME280;59408;51.032;9.410;2023-07-08T12:01:22;99213.22;;;38.04;21.56
71573;BME280;59408;51.032;9.410;2023-07-08T12:03:51;99213.63;;;38.25;23.05
71573;BME280;59408;51.032;9.410;2023-07-08T12:06:43;99213.13;;;38.73;22.65
71573;BME280;59408;51.032;9.410;2023-07-08T12:09:22;99206.69;;;38.67;21.92
71573;BME280;59408;51.032;9.410;2023-07-08T12:11:53;99203.97;;;38.50;21.34
71573;BME280;59408;51.032;9.410;2023-07-08T12:14:22;99199.81;;;38.46;21.35
71573;BME280;59408;51.032;9.410;2023-07-08T12:16:49;99197.69;;;37.94;20.72
71573;BME280;59408;51.032;9.410;2023-07-08T12:19:18;99199.56;;;38.49;22.32
71573;BME280;59408;51.032;9.410;2023-07-08T12:21:44;99193.16;;;38.26;21.47
71573;BME280;59408;51.032;9.410;2023-07-08T12:24:13;99199.09;;;38.40;22.40
71573;BME280;59408;51.032;9.410;2023-07-08T12:26:40;99209.66;;;37.70;23.86
71573;BME280;59408;51.032;9.410;2023-07-08T12:29:10;99200.59;;;36.66;22.71
71573;BME280;59408;51.032;9.410;2023-07-08T12:31:38;99195.56;;;35.79;24.32
71573;BME280;59408;51.032;9.410;2023-07-08T12:34:11;99186.63;;;36.79;24.28
71573;BME280;59408;51.032;9.410;2023-07-08T12:36:39;99191.06;;;37.25;22.79
71573;BME280;59408;51.032;9.410;2023-07-08T12:39:11;99183.03;;;37.40;23.83
71573;BME280;59408;51.032;9.410;2023-07-08T12:41:37;99189.47;;;37.63;24.26
71573;BME280;59408;51.032;9.410;2023-07-08T12:44:16;99180.34;;;37.92;22.98
71573;BME280;59408;51.032;9.410;2023-07-08T12:46:43;99178.50;;;38.58;21.99
71573;BME280;59408;51.032;9.410;2023-07-08T12:49:10;99183.06;;;39.08;21.06
71573;BME280;59408;51.032;9.410;2023-07-08T12:51:37;99178.13;;;38.32;22.19
71573;BME280;59408;51.032;9.410;2023-07-08T12:54:03;99172.47;;;38.67;24.64
71573;BME280;59408;51.032;9.410;2023-07-08T12:56:30;99180.28;;;39.02;19.69
71573;BME280;59408;51.032;9.410;2023-07-08T12:58:57;99171.84;;;38.39;20.99
71573;BME280;59408;51.032;9.410;2023-07-08T13:01:29;99168.88;;;38.61;22.41
71573;BME280;59408;51.032;9.410;2023-07-08T13:03:59;99174.66;;;38.50;22.46
71573;BME280;59408;51.032;9.410;2023-07-08T13:06:29;99173.03;;;38.13;23.05
71573;BME280;59408;51.032;9.410;2023-07-08T13:09:00;99174.94;;;38.46;21.72